sensor_id;sensor_type;location;lat;lon;timestamp;P1;durP1;ratioP1;P2;durP2;ratioP2
69434;SDS011;56625;54.322;18.582;2023-03-25T00:00:15;13.70;;;5.80;;
69434;SDS011;56625;54.322;18.582;2023-03-25T00:03:05;18.00;;;4.20;;
69434;SDS011;56625;54.322;18.582;2023-03-25T00:05:38;12.20;;;3.50;;
69434;SDS011;56625;54.322;18.582;2023-03-25T00:08:07;12.30;;;4.00;;
69434;SDS011;56625;54.322;18.582;2023-03-25T00:10:34;11.50;;;3.70;;
69434;SDS011;56625;54.322;18.582;2023-03-25T00:13:02;11.30;;;3.90;;
69434;SDS011;56625;54.322;18.582;2023-03-25T00:15:32;11.80;;;3.40;;
69434;SDS011;56625;54.322;18.582;2023-03-25T00:18:02;11.40;;;4.30;;
69434;SDS011;56625;54.322;18.582;2023-03-25T00:20:30;12.00;;;3.70;;
69434;SDS011;56625;54.322;18.582;2023-03-25T00:22:59;11.30;;;4.00;;
69434;SDS011;56625;54.322;18.582;2023-03-25T00:25:26;11.70;;;4.10;;
69434;SDS011;56625;54.322;18.582;2023-03-25T00:27:54;12.10;;;4.10;;
69434;SDS011;56625;54.322;18.582;2023-03-25T00:30:22;9.50;;;2.90;;
69434;SDS011;56625;54.322;18.582;2023-03-25T00:32:50;11.50;;;3.50;;
69434;SDS011;56625;54.322;18.582;2023-03-25T00:35:21;12.40;;;3.00;;
69434;SDS011;56625;54.322;18.582;2023-03-25T00:37:51;9.10;;;3.30;;
69434;SDS011;56625;54.322;18.582;2023-03-25T00:40:26;7.80;;;2.80;;
69434;SDS011;56625;54.322;18.582;2023-03-25T00:42:56;11.70;;;4.10;;
69434;SDS011;56625;54.322;18.582;2023-03-25T00:45:24;10.00;;;3.20;;
69434;SDS011;56625;54.322;18.582;2023-03-25T00:47:51;10.10;;;3.60;;
69434;SDS011;56625;54.322;18.582;2023-03-25T00:50:20;10.20;;;3.70;;
69434;SDS011;56625;54.322;18.582;2023-03-25T00:52:48;11.20;;;4.00;;
69434;SDS011;56625;54.322;18.582;2023-03-25T00:55:16;10.00;;;3.50;;
69434;SDS011;56625;54.322;18.582;2023-03-25T00:57:45;9.30;;;3.60;;
69434;SDS011;56625;54.322;18.582;2023-03-25T01:00:16;10.80;;;3.60;;
69434;SDS011;56625;54.322;18.582;2023-03-25T01:02:44;10.20;;;3.60;;
69434;SDS011;56625;54.322;18.582;2023-03-25T01:05:12;11.10;;;3.10;;
69434;SDS011;56625;54.322;18.582;2023-03-25T01:07:40;9.00;;;3.50;;
69434;SDS011;56625;54.322;18.582;2023-03-25T01:10:09;8.30;;;3.70;;
69434;SDS011;56625;54.322;18.582;2023-03-25T01:12:38;9.40;;;3.30;;
69434;SDS011;56625;54.322;18.582;2023-03-25T01:15:08;9.40;;;3.80;;
69434;SDS011;56625;54.322;18.582;2023-03-25T01:17:36;9.40;;;4.00;;
69434;SDS011;56625;54.322;18.582;2023-03-25T01:20:05;8.50;;;3.90;;
69434;SDS011;56625;54.322;18.582;2023-03-25T01:22:36;8.40;;;3.70;;
69434;SDS011;56625;54.322;18.582;2023-03-25T01:25:04;11.00;;;3.80;;
69434;SDS011;56625;54.322;18.582;2023-03-25T01:27:32;9.90;;;4.00;;
69434;SDS011;56625;54.322;18.582;2023-03-25T01:29:59;10.80;;;4.00;;
69434;SDS011;56625;54.322;18.582;2023-03-25T01:32:28;9.40;;;3.60;;
69434;SDS011;56625;54.322;18.582;2023-03-25T01:34:56;9.50;;;3.30;;
69434;SDS011;56625;54.322;18.582;2023-03-25T01:37:23;7.90;;;3.50;;
69434;SDS011;56625;54.322;18.582;2023-03-25T01:39:52;11.40;;;3.70;;
69434;SDS011;56625;54.322;18.582;2023-03-25T01:42:20;9.00;;;3.20;;
69434;SDS011;56625;54.322;18.582;2023-03-25T01:47:19;8.10;;;3.10;;
69434;SDS011;56625;54.322;18.582;2023-03-25T01:49:47;7.50;;;2.50;;
69434;SDS011;56625;54.322;18.582;2023-03-25T01:52:20;6.30;;;1.40;;
69434;SDS011;56625;54.322;18.582;2023-03-25T01:54:52;5.10;;;1.50;;
69434;SDS011;56625;54.322;18.582;2023-03-25T01:57:23;8.10;;;2.80;;
69434;SDS011;56625;54.322;18.582;2023-03-25T01:59:53;6.20;;;2.00;;
69434;SDS011;56625;54.322;18.582;2023-03-25T02:02:22;5.60;;;1.40;;
69434;SDS011;56625;54.322;18.582;2023-03-25T02:05:14;7.80;;;2.00;;
69434;SDS011;56625;54.322;18.582;2023-03-25T02:07:48;7.00;;;2.20;;
69434;SDS011;56625;54.322;18.582;2023-03-25T02:10:16;8.70;;;2.30;;
69434;SDS011;56625;54.322;18.582;2023-03-25T02:12:45;5.10;;;1.60;;
69434;SDS011;56625;54.322;18.582;2023-03-25T02:15:16;7.00;;;1.80;;
69434;SDS011;56625;54.322;18.582;2023-03-25T02:26:56;5.80;;;1.90;;
69434;SDS011;56625;54.322;18.582;2023-03-25T02:47:37;7.10;;;2.20;;
69434;SDS011;56625;54.322;18.582;2023-03-25T02:50:18;7.40;;;2.40;;
69434;SDS011;56625;54.322;18.582;2023-03-25T02:52:59;4.90;;;1.50;;
69434;SDS011;56625;54.322;18.582;2023-03-25T02:55:33;7.60;;;2.30;;
69434;SDS011;56625;54.322;18.582;2023-03-25T02:58:04;7.30;;;2.20;;
69434;SDS011;56625;54.322;18.582;2023-03-25T03:00:35;7.00;;;2.20;;
69434;SDS011;56625;54.322;18.582;2023-03-25T03:03:07;5.50;;;1.60;;
69434;SDS011;56625;54.322;18.582;2023-03-25T03:05:42;6.50;;;2.20;;
69434;SDS011;56625;54.322;18.582;2023-03-25T03:11:29;8.00;;;2.30;;
69434;SDS011;56625;54.322;18.582;2023-03-25T03:23:08;5.20;;;1.60;;
69434;SDS011;56625;54.322;18.582;2023-03-25T03:25:51;10.40;;;2.90;;
69434;SDS011;56625;54.322;18.582;2023-03-25T03:28:31;8.10;;;2.50;;
69434;SDS011;56625;54.322;18.582;2023-03-25T03:31:16;8.20;;;2.60;;
69434;SDS011;56625;54.322;18.582;2023-03-25T03:34:39;7.90;;;2.30;;
69434;SDS011;56625;54.322;18.582;2023-03-25T03:37:35;7.30;;;2.50;;
69434;SDS011;56625;54.322;18.582;2023-03-25T03:40:21;6.50;;;2.30;;
69434;SDS011;56625;54.322;18.582;2023-03-25T03:43:00;7.40;;;2.10;;
69434;SDS011;56625;54.322;18.582;2023-03-25T03:45:40;8.50;;;2.70;;
69434;SDS011;56625;54.322;18.582;2023-03-25T03:48:19;8.30;;;2.40;;
69434;SDS011;56625;54.322;18.582;2023-03-25T03:51:05;8.00;;;2.40;;
69434;SDS011;56625;54.322;18.582;2023-03-25T03:53:41;11.80;;;2.50;;
69434;SDS011;56625;54.322;18.582;2023-03-25T03:56:16;8.20;;;2.90;;
69434;SDS011;56625;54.322;18.582;2023-03-25T03:58:51;8.90;;;3.10;;
69434;SDS011;56625;54.322;18.582;2023-03-25T04:01:33;8.90;;;2.90;;
69434;SDS011;56625;54.322;18.582;2023-03-25T04:04:17;10.10;;;2.70;;
69434;SDS011;56625;54.322;18.582;2023-03-25T04:10:04;8.60;;;2.70;;
69434;SDS011;56625;54.322;18.582;2023-03-25T04:12:45;8.70;;;3.00;;
69434;SDS011;56625;54.322;18.582;2023-03-25T04:15:17;9.80;;;3.00;;
69434;SDS011;56625;54.322;18.582;2023-03-25T04:17:45;9.00;;;2.50;;
69434;SDS011;56625;54.322;18.582;2023-03-25T04:20:20;9.10;;;3.10;;
69434;SDS011;56625;54.322;18.582;2023-03-25T04:22:51;6.80;;;2.70;;
69434;SDS011;56625;54.322;18.582;2023-03-25T04:25:19;8.20;;;3.00;;
69434;SDS011;56625;54.322;18.582;2023-03-25T04:27:52;8.40;;;2.60;;
69434;SDS011;56625;54.322;18.582;2023-03-25T04:30:27;7.40;;;2.40;;
69434;SDS011;56625;54.322;18.582;2023-03-25T04:32:56;9.00;;;3.00;;
69434;SDS011;56625;54.322;18.582;2023-03-25T04:35:24;10.40;;;3.20;;
69434;SDS011;56625;54.322;18.582;2023-03-25T04:37:52;8.00;;;2.70;;
69434;SDS011;56625;54.322;18.582;2023-03-25T04:40:24;8.20;;;2.80;;
69434;SDS011;56625;54.322;18.582;2023-03-25T04:42:52;8.20;;;3.00;;
69434;SDS011;56625;54.322;18.582;2023-03-25T04:45:23;9.30;;;3.10;;
69434;SDS011;56625;54.322;18.582;2023-03-25T04:47:52;7.80;;;2.80;;
69434;SDS011;56625;54.322;18.582;2023-03-25T04:50:23;8.30;;;2.90;;
69434;SDS011;56625;54.322;18.582;2023-03-25T04:52:56;8.20;;;2.80;;
69434;SDS011;56625;54.322;18.582;2023-03-25T04:55:25;9.90;;;3.50;;
69434;SDS011;56625;54.322;18.582;2023-03-25T04:57:53;8.60;;;2.70;;
69434;SDS011;56625;54.322;18.582;2023-03-25T05:00:23;9.00;;;2.80;;
69434;SDS011;56625;54.322;18.582;2023-03-25T05:02:54;8.00;;;3.00;;
69434;SDS011;56625;54.322;18.582;2023-03-25T05:05:24;8.30;;;2.80;;
69434;SDS011;56625;54.322;18.582;2023-03-25T05:07:53;9.40;;;2.90;;
69434;SDS011;56625;54.322;18.582;2023-03-25T05:10:26;9.60;;;3.00;;
69434;SDS011;56625;54.322;18.582;2023-03-25T05:13:03;8.40;;;3.30;;
69434;SDS011;56625;54.322;18.582;2023-03-25T05:15:35;8.80;;;3.40;;
69434;SDS011;56625;54.322;18.582;2023-03-25T05:18:12;9.30;;;2.90;;
69434;SDS011;56625;54.322;18.582;2023-03-25T05:20:43;9.20;;;2.80;;
69434;SDS011;56625;54.322;18.582;2023-03-25T05:23:13;10.30;;;3.80;;
69434;SDS011;56625;54.322;18.582;2023-03-25T05:25:50;8.10;;;3.20;;
69434;SDS011;56625;54.322;18.582;2023-03-25T05:28:18;8.90;;;3.50;;
69434;SDS011;56625;54.322;18.582;2023-03-25T05:30:47;8.80;;;3.80;;
69434;SDS011;56625;54.322;18.582;2023-03-25T05:33:16;11.00;;;3.30;;
69434;SDS011;56625;54.322;18.582;2023-03-25T05:35:45;8.50;;;3.40;;
69434;SDS011;56625;54.322;18.582;2023-03-25T05:38:14;8.40;;;3.30;;
69434;SDS011;56625;54.322;18.582;2023-03-25T05:40:46;9.30;;;3.50;;
69434;SDS011;56625;54.322;18.582;2023-03-25T05:43:15;7.50;;;3.30;;
69434;SDS011;56625;54.322;18.582;2023-03-25T05:45:43;8.80;;;3.70;;
69434;SDS011;56625;54.322;18.582;2023-03-25T05:48:13;9.60;;;3.50;;
69434;SDS011;56625;54.322;18.582;2023-03-25T05:50:41;9.80;;;3.30;;
69434;SDS011;56625;54.322;18.582;2023-03-25T05:53:14;9.00;;;3.60;;
69434;SDS011;56625;54.322;18.582;2023-03-25T05:55:44;10.50;;;3.80;;
69434;SDS011;56625;54.322;18.582;2023-03-25T05:58:14;9.20;;;3.50;;
69434;SDS011;56625;54.322;18.582;2023-03-25T06:00:44;9.60;;;3.80;;
69434;SDS011;56625;54.322;18.582;2023-03-25T06:03:13;8.50;;;3.00;;
69434;SDS011;56625;54.322;18.582;2023-03-25T06:05:42;7.40;;;3.00;;
69434;SDS011;56625;54.322;18.582;2023-03-25T06:08:09;9.60;;;3.30;;
69434;SDS011;56625;54.322;18.582;2023-03-25T06:10:38;9.30;;;3.70;;
69434;SDS011;56625;54.322;18.582;2023-03-25T06:13:05;9.40;;;3.20;;
69434;SDS011;56625;54.322;18.582;2023-03-25T06:15:33;9.20;;;3.10;;
69434;SDS011;56625;54.322;18.582;2023-03-25T06:18:05;8.70;;;3.20;;
69434;SDS011;56625;54.322;18.582;2023-03-25T06:20:34;9.00;;;2.40;;
69434;SDS011;56625;54.322;18.582;2023-03-25T06:23:02;10.00;;;2.90;;
69434;SDS011;56625;54.322;18.582;2023-03-25T06:25:29;7.30;;;2.70;;
69434;SDS011;56625;54.322;18.582;2023-03-25T06:27:57;6.60;;;2.40;;
69434;SDS011;56625;54.322;18.582;2023-03-25T06:30:30;5.30;;;1.50;;
69434;SDS011;56625;54.322;18.582;2023-03-25T06:32:58;7.30;;;2.60;;
69434;SDS011;56625;54.322;18.582;2023-03-25T06:35:29;6.50;;;2.40;;
69434;SDS011;56625;54.322;18.582;2023-03-25T06:37:58;8.10;;;2.50;;
69434;SDS011;56625;54.322;18.582;2023-03-25T06:40:26;6.50;;;2.00;;
69434;SDS011;56625;54.322;18.582;2023-03-25T06:42:54;8.60;;;3.00;;
69434;SDS011;56625;54.322;18.582;2023-03-25T06:45:22;7.50;;;2.40;;
69434;SDS011;56625;54.322;18.582;2023-03-25T06:47:49;7.30;;;2.70;;
69434;SDS011;56625;54.322;18.582;2023-03-25T06:50:17;5.10;;;1.50;;
69434;SDS011;56625;54.322;18.582;2023-03-25T06:52:45;8.50;;;2.50;;
69434;SDS011;56625;54.322;18.582;2023-03-25T06:55:13;7.60;;;2.50;;
69434;SDS011;56625;54.322;18.582;2023-03-25T06:57:41;6.50;;;2.30;;
69434;SDS011;56625;54.322;18.582;2023-03-25T07:00:10;7.70;;;2.50;;
69434;SDS011;56625;54.322;18.582;2023-03-25T07:02:38;8.10;;;2.30;;
69434;SDS011;56625;54.322;18.582;2023-03-25T07:05:07;6.80;;;2.20;;
69434;SDS011;56625;54.322;18.582;2023-03-25T07:07:35;6.90;;;2.40;;
69434;SDS011;56625;54.322;18.582;2023-03-25T07:10:03;6.90;;;2.00;;
69434;SDS011;56625;54.322;18.582;2023-03-25T07:12:33;9.10;;;2.00;;
69434;SDS011;56625;54.322;18.582;2023-03-25T07:15:01;8.10;;;2.30;;
69434;SDS011;56625;54.322;18.582;2023-03-25T07:17:29;7.40;;;1.90;;
69434;SDS011;56625;54.322;18.582;2023-03-25T07:19:57;7.10;;;2.20;;
69434;SDS011;56625;54.322;18.582;2023-03-25T07:22:25;9.50;;;2.20;;
69434;SDS011;56625;54.322;18.582;2023-03-25T07:24:53;6.20;;;2.20;;
69434;SDS011;56625;54.322;18.582;2023-03-25T07:27:21;6.30;;;2.20;;
69434;SDS011;56625;54.322;18.582;2023-03-25T07:29:49;7.50;;;2.30;;
69434;SDS011;56625;54.322;18.582;2023-03-25T07:32:16;7.10;;;2.20;;
69434;SDS011;56625;54.322;18.582;2023-03-25T07:34:45;8.70;;;2.30;;
69434;SDS011;56625;54.322;18.582;2023-03-25T07:37:13;7.30;;;2.60;;
69434;SDS011;56625;54.322;18.582;2023-03-25T07:39:40;6.70;;;2.30;;
69434;SDS011;56625;54.322;18.582;2023-03-25T07:42:09;7.70;;;2.40;;
69434;SDS011;56625;54.322;18.582;2023-03-25T07:44:37;6.30;;;2.60;;
69434;SDS011;56625;54.322;18.582;2023-03-25T07:47:04;6.60;;;2.20;;
69434;SDS011;56625;54.322;18.582;2023-03-25T07:49:33;10.60;;;2.90;;
69434;SDS011;56625;54.322;18.582;2023-03-25T07:52:01;6.80;;;2.10;;
69434;SDS011;56625;54.322;18.582;2023-03-25T07:54:29;9.60;;;2.10;;
69434;SDS011;56625;54.322;18.582;2023-03-25T07:56:57;6.60;;;2.30;;
69434;SDS011;56625;54.322;18.582;2023-03-25T07:59:25;6.50;;;2.30;;
69434;SDS011;56625;54.322;18.582;2023-03-25T08:01:56;7.00;;;2.50;;
69434;SDS011;56625;54.322;18.582;2023-03-25T08:04:24;7.70;;;2.70;;
69434;SDS011;56625;54.322;18.582;2023-03-25T08:06:52;6.00;;;2.30;;
69434;SDS011;56625;54.322;18.582;2023-03-25T08:09:20;7.10;;;2.40;;
69434;SDS011;56625;54.322;18.582;2023-03-25T08:11:49;7.50;;;2.80;;
69434;SDS011;56625;54.322;18.582;2023-03-25T08:14:18;7.40;;;1.90;;
69434;SDS011;56625;54.322;18.582;2023-03-25T08:16:46;6.80;;;2.40;;
69434;SDS011;56625;54.322;18.582;2023-03-25T08:19:14;7.50;;;2.80;;
69434;SDS011;56625;54.322;18.582;2023-03-25T08:21:42;6.80;;;2.60;;
69434;SDS011;56625;54.322;18.582;2023-03-25T08:24:11;7.90;;;2.60;;
69434;SDS011;56625;54.322;18.582;2023-03-25T08:26:40;7.60;;;2.40;;
69434;SDS011;56625;54.322;18.582;2023-03-25T08:29:08;6.10;;;2.10;;
69434;SDS011;56625;54.322;18.582;2023-03-25T08:31:38;6.30;;;2.50;;
69434;SDS011;56625;54.322;18.582;2023-03-25T08:34:07;8.50;;;2.70;;
69434;SDS011;56625;54.322;18.582;2023-03-25T08:36:35;7.30;;;2.40;;
69434;SDS011;56625;54.322;18.582;2023-03-25T08:39:06;7.50;;;1.90;;
69434;SDS011;56625;54.322;18.582;2023-03-25T08:41:39;10.00;;;2.50;;
69434;SDS011;56625;54.322;18.582;2023-03-25T08:44:07;6.40;;;2.00;;
69434;SDS011;56625;54.322;18.582;2023-03-25T08:46:35;6.00;;;2.20;;
69434;SDS011;56625;54.322;18.582;2023-03-25T08:49:04;6.30;;;1.80;;
69434;SDS011;56625;54.322;18.582;2023-03-25T08:51:33;7.40;;;2.30;;
69434;SDS011;56625;54.322;18.582;2023-03-25T08:54:01;6.90;;;2.20;;
69434;SDS011;56625;54.322;18.582;2023-03-25T08:56:29;7.30;;;2.30;;
69434;SDS011;56625;54.322;18.582;2023-03-25T08:58:57;8.20;;;2.00;;
69434;SDS011;56625;54.322;18.582;2023-03-25T09:01:24;6.40;;;2.00;;
69434;SDS011;56625;54.322;18.582;2023-03-25T09:03:52;7.20;;;2.20;;
69434;SDS011;56625;54.322;18.582;2023-03-25T09:06:22;6.80;;;2.00;;
69434;SDS011;56625;54.322;18.582;2023-03-25T09:08:50;9.00;;;2.50;;
69434;SDS011;56625;54.322;18.582;2023-03-25T09:11:18;8.50;;;2.30;;
69434;SDS011;56625;54.322;18.582;2023-03-25T09:14:03;7.60;;;1.70;;
69434;SDS011;56625;54.322;18.582;2023-03-25T09:16:32;6.90;;;1.90;;
69434;SDS011;56625;54.322;18.582;2023-03-25T09:19:01;6.60;;;2.10;;
69434;SDS011;56625;54.322;18.582;2023-03-25T09:21:30;6.40;;;2.20;;
69434;SDS011;56625;54.322;18.582;2023-03-25T09:23:57;5.60;;;1.60;;
69434;SDS011;56625;54.322;18.582;2023-03-25T09:26:25;7.00;;;1.90;;
69434;SDS011;56625;54.322;18.582;2023-03-25T09:28:54;5.10;;;1.90;;
69434;SDS011;56625;54.322;18.582;2023-03-25T09:31:22;6.80;;;1.80;;
69434;SDS011;56625;54.322;18.582;2023-03-25T09:33:50;7.60;;;2.50;;
69434;SDS011;56625;54.322;18.582;2023-03-25T09:36:18;4.70;;;1.50;;
69434;SDS011;56625;54.322;18.582;2023-03-25T09:38:46;6.00;;;2.10;;
69434;SDS011;56625;54.322;18.582;2023-03-25T09:44:27;4.70;;;1.40;;
69434;SDS011;56625;54.322;18.582;2023-03-25T09:47:02;6.60;;;1.60;;
69434;SDS011;56625;54.322;18.582;2023-03-25T09:49:40;6.50;;;1.30;;
69434;SDS011;56625;54.322;18.582;2023-03-25T09:52:17;4.80;;;1.20;;
69434;SDS011;56625;54.322;18.582;2023-03-25T09:54:57;6.20;;;2.00;;
69434;SDS011;56625;54.322;18.582;2023-03-25T09:57:30;5.70;;;1.30;;
69434;SDS011;56625;54.322;18.582;2023-03-25T10:00:06;7.10;;;1.70;;
69434;SDS011;56625;54.322;18.582;2023-03-25T10:06:11;5.10;;;1.30;;
69434;SDS011;56625;54.322;18.582;2023-03-25T10:12:03;6.40;;;1.40;;
69434;SDS011;56625;54.322;18.582;2023-03-25T10:14:53;6.20;;;1.60;;
69434;SDS011;56625;54.322;18.582;2023-03-25T10:20:41;4.60;;;1.10;;
69434;SDS011;56625;54.322;18.582;2023-03-25T10:23:33;6.00;;;1.40;;
69434;SDS011;56625;54.322;18.582;2023-03-25T10:29:09;6.80;;;1.50;;
69434;SDS011;56625;54.322;18.582;2023-03-25T10:31:52;8.90;;;1.60;;
69434;SDS011;56625;54.322;18.582;2023-03-25T10:34:32;5.40;;;1.70;;
69434;SDS011;56625;54.322;18.582;2023-03-25T10:37:09;8.20;;;1.50;;
69434;SDS011;56625;54.322;18.582;2023-03-25T10:39:41;5.00;;;1.40;;
69434;SDS011;56625;54.322;18.582;2023-03-25T10:44:57;4.30;;;1.20;;
69434;SDS011;56625;54.322;18.582;2023-03-25T10:47:29;4.70;;;0.90;;
69434;SDS011;56625;54.322;18.582;2023-03-25T10:50:13;7.20;;;1.60;;
69434;SDS011;56625;54.322;18.582;2023-03-25T10:52:44;2.00;;;0.40;;
69434;SDS011;56625;54.322;18.582;2023-03-25T10:55:27;1.50;;;0.30;;
69434;SDS011;56625;54.322;18.582;2023-03-25T10:58:01;1.80;;;0.30;;
69434;SDS011;56625;54.322;18.582;2023-03-25T11:00:29;3.30;;;0.60;;
69434;SDS011;56625;54.322;18.582;2023-03-25T11:02:58;1.70;;;0.30;;
69434;SDS011;56625;54.322;18.582;2023-03-25T11:05:27;1.90;;;0.30;;
69434;SDS011;56625;54.322;18.582;2023-03-25T11:07:58;2.50;;;0.50;;
69434;SDS011;56625;54.322;18.582;2023-03-25T11:10:49;2.80;;;0.70;;
69434;SDS011;56625;54.322;18.582;2023-03-25T11:13:28;3.80;;;0.90;;
69434;SDS011;56625;54.322;18.582;2023-03-25T11:16:01;4.90;;;1.10;;
69434;SDS011;56625;54.322;18.582;2023-03-25T11:18:36;3.40;;;0.90;;
69434;SDS011;56625;54.322;18.582;2023-03-25T11:21:12;5.00;;;1.00;;
69434;SDS011;56625;54.322;18.582;2023-03-25T11:23:44;2.10;;;0.50;;
69434;SDS011;56625;54.322;18.582;2023-03-25T11:26:23;3.80;;;1.10;;
69434;SDS011;56625;54.322;18.582;2023-03-25T11:28:55;1.50;;;0.30;;
69434;SDS011;56625;54.322;18.582;2023-03-25T11:31:33;5.10;;;0.90;;
69434;SDS011;56625;54.322;18.582;2023-03-25T11:34:17;2.80;;;0.40;;
69434;SDS011;56625;54.322;18.582;2023-03-25T11:37:02;4.90;;;0.90;;
69434;SDS011;56625;54.322;18.582;2023-03-25T11:39:38;3.90;;;0.70;;
69434;SDS011;56625;54.322;18.582;2023-03-25T11:44:51;5.10;;;1.10;;
69434;SDS011;56625;54.322;18.582;2023-03-25T11:47:29;4.70;;;1.00;;
69434;SDS011;56625;54.322;18.582;2023-03-25T11:50:06;7.20;;;1.30;;
69434;SDS011;56625;54.322;18.582;2023-03-25T11:52:48;5.10;;;1.00;;
69434;SDS011;56625;54.322;18.582;2023-03-25T11:55:30;5.60;;;1.30;;
69434;SDS011;56625;54.322;18.582;2023-03-25T11:58:03;4.30;;;0.90;;
69434;SDS011;56625;54.322;18.582;2023-03-25T12:00:37;4.10;;;1.00;;
69434;SDS011;56625;54.322;18.582;2023-03-25T12:05:41;3.60;;;0.60;;
69434;SDS011;56625;54.322;18.582;2023-03-25T12:08:14;4.50;;;0.60;;
69434;SDS011;56625;54.322;18.582;2023-03-25T12:11:12;3.80;;;0.60;;
69434;SDS011;56625;54.322;18.582;2023-03-25T12:16:29;3.50;;;0.90;;
69434;SDS011;56625;54.322;18.582;2023-03-25T12:19:20;4.00;;;0.90;;
69434;SDS011;56625;54.322;18.582;2023-03-25T12:22:40;4.90;;;1.10;;
69434;SDS011;56625;54.322;18.582;2023-03-25T12:31:03;4.00;;;0.90;;
69434;SDS011;56625;54.322;18.582;2023-03-25T12:34:03;5.90;;;1.10;;
69434;SDS011;56625;54.322;18.582;2023-03-25T12:39:55;5.00;;;0.90;;
69434;SDS011;56625;54.322;18.582;2023-03-25T12:43:03;5.20;;;0.90;;
69434;SDS011;56625;54.322;18.582;2023-03-25T12:45:58;3.90;;;0.60;;
69434;SDS011;56625;54.322;18.582;2023-03-25T12:49:09;3.60;;;0.90;;
69434;SDS011;56625;54.322;18.582;2023-03-25T12:51:59;4.30;;;0.90;;
69434;SDS011;56625;54.322;18.582;2023-03-25T13:00:53;3.50;;;0.80;;
69434;SDS011;56625;54.322;18.582;2023-03-25T13:06:49;6.80;;;1.40;;
69434;SDS011;56625;54.322;18.582;2023-03-25T13:09:29;3.80;;;0.70;;
69434;SDS011;56625;54.322;18.582;2023-03-25T13:12:10;4.90;;;1.00;;
69434;SDS011;56625;54.322;18.582;2023-03-25T13:14:55;3.90;;;1.10;;
69434;SDS011;56625;54.322;18.582;2023-03-25T13:17:34;5.80;;;1.60;;
69434;SDS011;56625;54.322;18.582;2023-03-25T13:20:09;4.20;;;0.90;;
69434;SDS011;56625;54.322;18.582;2023-03-25T13:22:40;4.80;;;1.30;;
69434;SDS011;56625;54.322;18.582;2023-03-25T13:25:23;5.40;;;1.00;;
69434;SDS011;56625;54.322;18.582;2023-03-25T13:27:59;3.90;;;0.90;;
69434;SDS011;56625;54.322;18.582;2023-03-25T13:30:38;6.70;;;1.10;;
69434;SDS011;56625;54.322;18.582;2023-03-25T13:33:15;6.20;;;1.30;;
69434;SDS011;56625;54.322;18.582;2023-03-25T13:35:54;3.20;;;0.70;;
69434;SDS011;56625;54.322;18.582;2023-03-25T13:38:31;4.60;;;0.90;;
69434;SDS011;56625;54.322;18.582;2023-03-25T13:41:42;4.50;;;1.10;;
69434;SDS011;56625;54.322;18.582;2023-03-25T13:44:20;2.50;;;0.90;;
69434;SDS011;56625;54.322;18.582;2023-03-25T13:46:53;5.10;;;1.30;;
69434;SDS011;56625;54.322;18.582;2023-03-25T13:49:36;6.70;;;1.10;;
69434;SDS011;56625;54.322;18.582;2023-03-25T13:52:26;5.40;;;1.10;;
69434;SDS011;56625;54.322;18.582;2023-03-25T13:55:04;4.50;;;1.00;;
69434;SDS011;56625;54.322;18.582;2023-03-25T14:07:07;1.30;;;0.10;;
69434;SDS011;56625;54.322;18.582;2023-03-25T14:13:00;1.90;;;0.30;;
69434;SDS011;56625;54.322;18.582;2023-03-25T14:15:35;2.10;;;0.30;;
69434;SDS011;56625;54.322;18.582;2023-03-25T14:18:18;1.20;;;0.10;;
69434;SDS011;56625;54.322;18.582;2023-03-25T14:20:47;2.20;;;0.30;;
69434;SDS011;56625;54.322;18.582;2023-03-25T14:23:18;1.50;;;0.20;;
69434;SDS011;56625;54.322;18.582;2023-03-25T14:25:55;2.00;;;0.20;;
69434;SDS011;56625;54.322;18.582;2023-03-25T14:28:36;1.90;;;0.30;;
69434;SDS011;56625;54.322;18.582;2023-03-25T14:31:14;1.70;;;0.40;;
69434;SDS011;56625;54.322;18.582;2023-03-25T14:39:10;2.00;;;0.20;;
69434;SDS011;56625;54.322;18.582;2023-03-25T14:42:00;1.60;;;0.10;;
69434;SDS011;56625;54.322;18.582;2023-03-25T14:44:42;2.30;;;0.30;;
69434;SDS011;56625;54.322;18.582;2023-03-25T14:47:25;3.10;;;0.40;;
69434;SDS011;56625;54.322;18.582;2023-03-25T14:52:53;4.00;;;0.50;;
69434;SDS011;56625;54.322;18.582;2023-03-25T14:55:27;1.90;;;0.30;;
69434;SDS011;56625;54.322;18.582;2023-03-25T14:58:23;3.50;;;0.60;;
69434;SDS011;56625;54.322;18.582;2023-03-25T15:01:05;4.00;;;0.70;;
69434;SDS011;56625;54.322;18.582;2023-03-25T15:03:42;5.20;;;0.90;;
69434;SDS011;56625;54.322;18.582;2023-03-25T15:06:16;3.40;;;0.80;;
69434;SDS011;56625;54.322;18.582;2023-03-25T15:08:56;5.00;;;1.00;;
69434;SDS011;56625;54.322;18.582;2023-03-25T15:11:35;5.50;;;1.20;;
69434;SDS011;56625;54.322;18.582;2023-03-25T15:14:08;5.90;;;1.20;;
69434;SDS011;56625;54.322;18.582;2023-03-25T15:19:18;6.70;;;1.70;;
69434;SDS011;56625;54.322;18.582;2023-03-25T15:24:31;4.40;;;1.20;;
69434;SDS011;56625;54.322;18.582;2023-03-25T15:30:02;4.40;;;0.70;;
69434;SDS011;56625;54.322;18.582;2023-03-25T15:36:14;7.70;;;1.70;;
69434;SDS011;56625;54.322;18.582;2023-03-25T15:42:32;5.90;;;1.30;;
69434;SDS011;56625;54.322;18.582;2023-03-25T15:48:24;5.30;;;1.30;;
69434;SDS011;56625;54.322;18.582;2023-03-25T15:51:43;7.40;;;1.70;;
69434;SDS011;56625;54.322;18.582;2023-03-25T15:55:10;7.20;;;1.60;;
69434;SDS011;56625;54.322;18.582;2023-03-25T15:57:39;7.40;;;1.60;;
69434;SDS011;56625;54.322;18.582;2023-03-25T16:00:32;6.30;;;1.60;;
69434;SDS011;56625;54.322;18.582;2023-03-25T16:03:18;7.10;;;1.60;;
69434;SDS011;56625;54.322;18.582;2023-03-25T16:05:52;6.90;;;1.70;;
69434;SDS011;56625;54.322;18.582;2023-03-25T16:08:37;2.90;;;0.60;;
69434;SDS011;56625;54.322;18.582;2023-03-25T16:14:01;5.30;;;1.00;;
69434;SDS011;56625;54.322;18.582;2023-03-25T16:16:31;5.10;;;0.90;;
69434;SDS011;56625;54.322;18.582;2023-03-25T16:19:03;4.10;;;0.80;;
69434;SDS011;56625;54.322;18.582;2023-03-25T16:21:37;5.60;;;0.50;;
69434;SDS011;56625;54.322;18.582;2023-03-25T16:24:09;5.20;;;1.00;;
69434;SDS011;56625;54.322;18.582;2023-03-25T16:26:44;5.10;;;0.90;;
69434;SDS011;56625;54.322;18.582;2023-03-25T16:29:16;4.30;;;0.80;;
69434;SDS011;56625;54.322;18.582;2023-03-25T16:34:23;3.80;;;0.80;;
69434;SDS011;56625;54.322;18.582;2023-03-25T16:36:54;5.40;;;0.90;;
69434;SDS011;56625;54.322;18.582;2023-03-25T16:39:23;4.10;;;0.70;;
69434;SDS011;56625;54.322;18.582;2023-03-25T16:41:59;5.90;;;1.00;;
69434;SDS011;56625;54.322;18.582;2023-03-25T16:44:29;4.30;;;0.80;;
69434;SDS011;56625;54.322;18.582;2023-03-25T16:46:58;6.30;;;1.00;;
69434;SDS011;56625;54.322;18.582;2023-03-25T16:49:29;5.20;;;1.00;;
69434;SDS011;56625;54.322;18.582;2023-03-25T16:52:01;5.60;;;0.90;;
69434;SDS011;56625;54.322;18.582;2023-03-25T16:54:37;6.30;;;1.20;;
69434;SDS011;56625;54.322;18.582;2023-03-25T16:57:17;7.10;;;1.70;;
69434;SDS011;56625;54.322;18.582;2023-03-25T16:59:50;5.90;;;1.50;;
69434;SDS011;56625;54.322;18.582;2023-03-25T17:02:36;5.30;;;1.20;;
69434;SDS011;56625;54.322;18.582;2023-03-25T17:07:47;5.50;;;1.10;;
69434;SDS011;56625;54.322;18.582;2023-03-25T17:10:29;5.10;;;1.10;;
69434;SDS011;56625;54.322;18.582;2023-03-25T17:13:23;4.30;;;0.90;;
69434;SDS011;56625;54.322;18.582;2023-03-25T17:15:54;5.40;;;1.10;;
69434;SDS011;56625;54.322;18.582;2023-03-25T17:18:26;4.20;;;0.90;;
69434;SDS011;56625;54.322;18.582;2023-03-25T17:20:58;5.60;;;1.30;;
69434;SDS011;56625;54.322;18.582;2023-03-25T17:26:12;5.40;;;1.10;;
69434;SDS011;56625;54.322;18.582;2023-03-25T17:36:36;5.60;;;1.30;;
69434;SDS011;56625;54.322;18.582;2023-03-25T17:39:20;8.00;;;2.00;;
69434;SDS011;56625;54.322;18.582;2023-03-25T17:42:00;7.60;;;2.20;;